Time;durP1;ratioP1;P1;durP2;ratioP2;P2;SDS_P1;SDS_P2;PMS_P1;PMS_P2;Temp;Humidity;BMP_temperature;BMP_pressure;BME280_temperature;BME280_humidity;BME280_pressure;Samples;Min_cycle;Max_cycle;Signal;HPM_P1;HPM_P2
2022/05/05 03:02:12;;;;;;;62.93;20.97;;;10.70;99.90;;;;;;5128629;23;20310;-77
2022/05/05 03:04:38;;;;;;;60.77;22.20;;;10.70;99.90;;;;;;4990368;28;20180;-76
2022/05/05 03:07:04;;;;;;;73.00;23.97;;;10.70;99.90;;;;;;4981241;28;20579;-74
2022/05/05 03:09:30;;;;;;;74.47;23.63;;;10.70;99.90;;;;;;4971394;28;20185;-75
2022/05/05 03:11:55;;;;;;;112.83;23.03;;;10.70;99.90;;;;;;4972652;28;20201;-76
2022/05/05 03:14:21;;;;;;;59.10;19.67;;;10.80;99.90;;;;;;4965663;28;20204;-74
2022/05/05 03:16:47;;;;;;;75.60;20.10;;;10.80;99.90;;;;;;4964794;28;20607;-76
2022/05/05 03:19:13;;;;;;;126.60;27.40;;;10.70;99.90;;;;;;4959957;28;20213;-75
2022/05/05 03:21:38;;;;;;;83.83;22.70;;;10.70;99.90;;;;;;4960540;29;20235;-76
2022/05/05 03:24:05;;;;;;;46.47;22.90;;;10.70;99.90;;;;;;4955963;28;20261;-74
2022/05/05 03:26:31;;;;;;;46.03;20.97;;;10.70;99.90;;;;;;4957262;28;20240;-73
2022/05/05 03:28:57;;;;;;;60.20;18.20;;;10.70;99.90;;;;;;4977576;28;20181;-73
2022/05/05 03:31:23;;;;;;;52.13;18.37;;;10.70;99.90;;;;;;4953582;28;20202;-73
2022/05/05 03:33:49;;;;;;;48.37;20.17;;;10.70;99.90;;;;;;4952638;28;20186;-73
2022/05/05 03:36:15;;;;;;;36.67;18.10;;;10.60;99.90;;;;;;4952641;29;20181;-75
2022/05/05 03:38:41;;;;;;;57.10;18.00;;;10.60;99.90;;;;;;4952259;29;20186;-74
2022/05/05 03:41:07;;;;;;;49.83;19.27;;;10.60;99.90;;;;;;4950911;28;20341;-74
2022/05/05 03:43:34;;;;;;;37.23;17.17;;;10.60;99.90;;;;;;4950275;28;20563;-75
2022/05/05 03:46:00;;;;;;;44.57;18.47;;;10.50;99.90;;;;;;4951865;28;20182;-75
2022/05/05 03:48:26;;;;;;;34.73;18.83;;;10.50;99.90;;;;;;4950142;28;20256;-74
2022/05/05 03:50:51;;;;;;;68.43;17.93;;;10.60;99.90;;;;;;4951723;28;20276;-76
2022/05/05 03:53:18;;;;;;;46.53;18.87;;;10.50;99.90;;;;;;4952164;28;20558;-75
2022/05/05 03:55:45;;;;;;;33.13;17.97;;;10.40;99.90;;;;;;4955185;28;20186;-75
2022/05/05 03:58:10;;;;;;;43.27;21.90;;;10.40;99.90;;;;;;4958294;28;20266;-74
2022/05/05 04:00:36;;;;;;;63.90;21.70;;;10.40;99.90;;;;;;4974707;28;20225;-75
2022/05/05 04:05:48;;;;;;;53.07;22.60;;;10.20;99.90;;;;;;4974987;28;20659;-75
2022/05/05 04:08:14;;;;;;;72.23;24.33;;;10.20;99.90;;;;;;4973355;28;20276;-75
2022/05/05 04:10:40;;;;;;;63.80;27.20;;;10.20;99.90;;;;;;4975032;28;20673;-76
2022/05/05 04:13:05;;;;;;;83.17;26.40;;;10.20;99.90;;;;;;4974645;28;20177;-75
2022/05/05 04:15:33;;;;;;;127.43;29.27;;;10.20;99.90;;;;;;4973583;28;20180;-75
2022/05/05 04:17:59;;;;;;;72.70;24.67;;;10.20;99.90;;;;;;4973311;28;20275;-76
2022/05/05 04:20:25;;;;;;;55.13;23.83;;;10.30;99.90;;;;;;4974510;28;20199;-75
2022/05/05 04:22:51;;;;;;;78.53;25.27;;;10.30;99.90;;;;;;4974736;28;20569;-75
2022/05/05 04:25:17;;;;;;;49.47;27.07;;;10.40;99.90;;;;;;4974791;28;20212;-75
2022/05/05 04:27:45;;;;;;;58.60;27.37;;;10.40;99.90;;;;;;4973877;28;20213;-75
2022/05/05 04:30:13;;;;;;;43.37;23.13;;;10.30;99.90;;;;;;4973273;28;20613;-75
2022/05/05 04:32:39;;;;;;;58.57;31.03;;;10.20;99.90;;;;;;4973332;28;20669;-75
2022/05/05 04:35:06;;;;;;;61.70;32.07;;;10.20;99.90;;;;;;4972944;28;20181;-74
2022/05/05 04:37:32;;;;;;;47.90;42.77;;;10.20;99.90;;;;;;4972895;28;20244;-75
2022/05/05 04:39:58;;;;;;;52.23;46.63;;;10.40;99.90;;;;;;4973458;28;20193;-75
2022/05/05 04:42:25;;;;;;;47.87;41.83;;;10.40;99.90;;;;;;4974619;28;20208;-76
2022/05/05 04:44:52;;;;;;;58.53;50.40;;;10.40;99.90;;;;;;4973977;28;20192;-76
2022/05/05 04:47:17;;;;;;;54.20;50.07;;;10.50;99.90;;;;;;4973842;28;20684;-75
2022/05/05 04:49:43;;;;;;;45.43;32.60;;;10.50;99.90;;;;;;4972670;28;20196;-74
2022/05/05 04:52:09;;;;;;;46.63;27.93;;;10.60;99.90;;;;;;4974049;28;20205;-75
2022/05/05 04:54:35;;;;;;;25.27;22.67;;;10.50;99.90;;;;;;4972940;28;20248;-75
2022/05/05 04:57:01;;;;;;;29.87;21.77;;;10.50;99.90;;;;;;4972423;28;20193;-75
2022/05/05 04:59:27;;;;;;;31.53;20.20;;;10.60;99.90;;;;;;4971797;28;20192;-74
2022/05/05 05:01:53;;;;;;;21.00;18.90;;;10.70;99.90;;;;;;4973217;28;20225;-73
2022/05/05 05:04:19;;;;;;;24.30;21.63;;;10.70;99.90;;;;;;4978080;28;20243;-76
2022/05/05 05:06:45;;;;;;;25.67;20.40;;;10.70;99.90;;;;;;4976878;28;20189;-73
2022/05/05 05:09:11;;;;;;;25.70;16.57;;;10.80;99.90;;;;;;4974146;28;20189;-75
2022/05/05 05:11:36;;;;;;;23.97;21.70;;;10.90;99.90;;;;;;4972527;28;20201;-75
2022/05/05 05:14:02;;;;;;;55.13;51.40;;;10.90;99.90;;;;;;4973912;28;20185;-74
2022/05/05 05:16:28;;;;;;;61.37;57.10;;;10.90;99.90;;;;;;4972558;28;20241;-74
2022/05/05 05:18:54;;;;;;;23.60;21.03;;;11.00;99.90;;;;;;4973394;28;20575;-68
2022/05/05 05:21:20;;;;;;;25.83;23.53;;;11.10;99.90;;;;;;4972490;28;20684;-68
2022/05/05 05:23:46;;;;;;;22.07;20.07;;;11.10;99.90;;;;;;4973746;28;20185;-68
2022/05/05 05:26:13;;;;;;;30.63;27.63;;;11.10;99.90;;;;;;4973553;28;20187;-68
2022/05/05 05:28:40;;;;;;;19.77;17.13;;;11.20;99.90;;;;;;4972189;28;20223;-67
2022/05/05 05:31:06;;;;;;;22.50;20.30;;;11.20;99.90;;;;;;4972422;28;20204;-68
2022/05/05 05:33:32;;;;;;;25.90;23.60;;;11.30;99.90;;;;;;4972380;28;20247;-67
2022/05/05 05:35:58;;;;;;;20.93;17.63;;;11.30;99.90;;;;;;4973634;28;20181;-71
2022/05/05 05:38:24;;;;;;;27.13;23.97;;;11.40;99.90;;;;;;4972034;28;20191;-72
2022/05/05 05:40:49;;;;;;;23.50;19.63;;;11.40;99.90;;;;;;4973335;28;20576;-71
2022/05/05 05:43:16;;;;;;;21.47;17.60;;;11.50;99.90;;;;;;4973199;28;20629;-71
2022/05/05 05:45:42;;;;;;;27.13;19.63;;;11.50;99.90;;;;;;4973407;28;20193;-71
2022/05/05 05:48:08;;;;;;;33.17;30.13;;;11.40;99.90;;;;;;4971598;28;20212;-72
2022/05/05 05:50:34;;;;;;;38.27;35.37;;;11.30;99.90;;;;;;4973138;28;20679;-71
2022/05/05 05:53:00;;;;;;;31.73;29.03;;;11.40;99.90;;;;;;4972968;28;20219;-71
2022/05/05 05:55:26;;;;;;;24.33;21.97;;;11.60;99.90;;;;;;4972077;28;20204;-71
2022/05/05 05:57:52;;;;;;;29.40;26.90;;;11.70;99.90;;;;;;4971459;28;20194;-72
2022/05/05 06:00:18;;;;;;;20.73;18.63;;;11.70;99.90;;;;;;4971662;28;20235;-72
2022/05/05 06:05:29;;;;;;;22.57;20.17;;;11.80;99.90;;;;;;4972996;28;20196;-71
2022/05/05 06:08:02;;;;;;;31.83;28.93;;;11.90;99.90;;;;;;4972491;28;20761;-71
2022/05/05 06:10:28;;;;;;;36.60;33.77;;;12.00;99.90;;;;;;4971885;28;20180;-71
2022/05/05 06:12:55;;;;;;;65.80;61.60;;;12.00;99.90;;;;;;4972767;28;20181;-71
2022/05/05 06:15:22;;;;;;;49.03;45.53;;;12.00;99.90;;;;;;4971079;28;20208;-71
2022/05/05 06:17:49;;;;;;;32.47;29.83;;;12.10;99.90;;;;;;4973752;28;20647;-71
2022/05/05 06:20:16;;;;;;;22.13;19.90;;;12.20;99.90;;;;;;4974192;28;20196;-72
2022/05/05 06:22:42;;;;;;;24.40;22.10;;;12.30;99.90;;;;;;4976078;28;20232;-72
2022/05/05 06:25:11;;;;;;;27.87;25.63;;;12.30;99.90;;;;;;4973120;28;20306;-72
2022/05/05 06:27:37;;;;;;;34.57;31.87;;;12.40;99.90;;;;;;4973197;28;20215;-72
2022/05/05 06:30:06;;;;;;;27.83;25.73;;;12.50;99.90;;;;;;4973937;28;20180;-72
2022/05/05 06:32:32;;;;;;;22.47;20.43;;;12.60;99.90;;;;;;4972666;28;20220;-71
2022/05/05 06:34:58;;;;;;;23.73;21.70;;;12.80;99.90;;;;;;4972684;28;20192;-72
2022/05/05 06:37:24;;;;;;;27.77;25.60;;;12.90;99.90;;;;;;4972323;28;20566;-71
2022/05/05 06:39:51;;;;;;;51.33;48.03;;;12.90;99.90;;;;;;4971298;28;20185;-72
2022/05/05 06:42:16;;;;;;;59.63;55.83;;;13.00;99.90;;;;;;4972801;28;20208;-72
2022/05/05 06:44:42;;;;;;;26.67;24.57;;;13.10;99.90;;;;;;4972853;28;20193;-72
2022/05/05 06:47:08;;;;;;;17.43;15.77;;;13.40;99.90;;;;;;4972415;28;20212;-72
2022/05/05 06:49:34;;;;;;;16.47;14.87;;;13.60;99.90;;;;;;4972407;28;20561;-71
2022/05/05 06:52:00;;;;;;;16.27;14.37;;;13.80;99.90;;;;;;4971561;28;20260;-71
2022/05/05 06:54:26;;;;;;;16.30;14.70;;;13.70;99.90;;;;;;4972311;28;20189;-71
2022/05/05 06:56:54;;;;;;;16.33;14.80;;;13.80;99.90;;;;;;4972077;28;20235;-71
2022/05/05 06:59:19;;;;;;;17.03;15.37;;;13.70;99.90;;;;;;4972230;28;20184;-71
2022/05/05 07:01:56;;;;;;;17.10;15.10;;;13.80;99.90;;;;;;4970666;28;20212;-71
2022/05/05 07:07:13;;;;;;;18.93;15.10;;;14.20;99.90;;;;;;4972087;28;20234;-71
2022/05/05 07:12:29;;;;;;;20.13;18.33;;;14.50;99.90;;;;;;4972114;28;20205;-71
2022/05/05 07:14:55;;;;;;;22.40;20.60;;;14.70;99.90;;;;;;4972609;28;20177;-70
2022/05/05 07:17:23;;;;;;;18.97;17.33;;;14.60;99.90;;;;;;4972368;28;20645;-71
2022/05/05 07:19:49;;;;;;;16.30;14.70;;;14.80;99.90;;;;;;4972506;28;20189;-70
2022/05/05 07:22:15;;;;;;;19.63;17.97;;;15.20;99.90;;;;;;4970982;28;20296;-71
2022/05/05 07:24:41;;;;;;;16.80;15.37;;;16.00;99.90;;;;;;4971009;28;20271;-71
2022/05/05 07:27:07;;;;;;;26.13;24.13;;;17.10;99.90;;;;;;4972823;28;20260;-71
2022/05/05 07:29:33;;;;;;;17.23;15.83;;;18.10;99.90;;;;;;4975709;28;20176;-71
2022/05/05 07:31:59;;;;;;;22.90;21.03;;;18.80;99.90;;;;;;4975614;28;20207;-71
2022/05/05 07:34:25;;;;;;;30.03;27.90;;;19.00;99.90;;;;;;4975683;28;20232;-71
2022/05/05 07:36:51;;;;;;;30.00;28.03;;;18.80;99.90;;;;;;4974147;28;20189;-71
2022/05/05 07:39:17;;;;;;;25.20;23.47;;;18.40;99.90;;;;;;4974374;28;20209;-71
2022/05/05 07:41:43;;;;;;;21.93;20.27;;;18.40;99.90;;;;;;4974162;28;20204;-71
2022/05/05 07:44:09;;;;;;;19.40;17.80;;;18.40;99.90;;;;;;4975489;28;20178;-71
2022/05/05 07:46:36;;;;;;;16.87;15.20;;;18.70;99.90;;;;;;4975403;28;20248;-71
2022/05/05 07:49:05;;;;;;;14.77;13.40;;;18.60;99.90;;;;;;4975078;28;20212;-71
2022/05/05 07:51:32;;;;;;;14.13;13.03;;;18.70;99.90;;;;;;4973994;28;20233;-72
2022/05/05 07:56:43;;;;;;;15.40;14.10;;;18.50;99.90;;;;;;4975519;28;20664;-71
2022/05/05 07:59:11;;;;;;;16.57;13.27;;;18.20;99.90;;;;;;4975200;28;20229;-71
2022/05/05 08:01:37;;;;;;;14.17;12.67;;;18.00;99.90;;;;;;4974999;28;20236;-71
2022/05/05 08:04:04;;;;;;;13.90;12.70;;;17.90;99.90;;;;;;4974080;28;20558;-72
2022/05/05 08:06:31;;;;;;;14.37;13.13;;;17.70;99.90;;;;;;4974258;28;20188;-71
2022/05/05 08:08:57;;;;;;;19.67;18.10;;;17.60;99.90;;;;;;4974616;28;20274;-71
2022/05/05 08:11:22;;;;;;;20.53;18.63;;;17.40;99.90;;;;;;4974010;28;20291;-72
2022/05/05 08:13:49;;;;;;;23.63;21.80;;;17.40;99.90;;;;;;4973750;28;20181;-72
2022/05/05 08:16:16;;;;;;;22.77;20.70;;;17.30;99.90;;;;;;4974950;28;20266;-72
2022/05/05 08:18:42;;;;;;;14.77;13.27;;;17.30;99.90;;;;;;4974407;28;20181;-71
2022/05/05 08:21:11;;;;;;;17.57;14.03;;;17.30;99.90;;;;;;4974062;28;20237;-72
2022/05/05 08:23:37;;;;;;;15.50;13.87;;;17.30;99.90;;;;;;4973978;28;20181;-72
2022/05/05 08:28:47;;;;;;;15.43;14.03;;;17.20;99.90;;;;;;4974386;28;20220;-72
2022/05/05 08:31:14;;;;;;;16.30;14.63;;;17.10;99.90;;;;;;4974556;28;20610;-72
2022/05/05 08:33:39;;;;;;;15.97;14.30;;;17.20;99.90;;;;;;4974651;28;20188;-71
2022/05/05 08:36:06;;;;;;;15.70;14.10;;;17.30;99.90;;;;;;4973368;28;20554;-72
2022/05/05 08:38:32;;;;;;;16.13;14.47;;;17.20;99.90;;;;;;4973560;28;20181;-72
2022/05/05 08:40:59;;;;;;;20.63;18.70;;;17.10;99.90;;;;;;4974386;28;20211;-72
2022/05/05 08:43:25;;;;;;;22.20;20.40;;;17.00;99.90;;;;;;4974522;28;20645;-72
2022/05/05 08:45:53;;;;;;;21.13;19.47;;;16.80;99.90;;;;;;4974349;28;20185;-71
2022/05/05 08:48:19;;;;;;;22.77;20.70;;;16.80;99.90;;;;;;4973937;28;20209;-71
2022/05/05 08:50:51;;;;;;;19.20;17.30;;;16.80;99.90;;;;;;4974345;28;20263;-71
2022/05/05 08:53:20;;;;;;;31.40;29.13;;;16.90;99.90;;;;;;4973010;28;20655;-72
2022/05/05 08:55:46;;;;;;;22.03;20.33;;;17.00;99.90;;;;;;4973989;28;20177;-71
2022/05/05 08:58:12;;;;;;;24.87;22.67;;;17.00;99.90;;;;;;4973681;28;20188;-71
2022/05/05 09:00:38;;;;;;;22.90;18.90;;;17.00;99.90;;;;;;4972795;28;20217;-72
2022/05/05 09:03:04;;;;;;;20.53;18.67;;;17.00;99.90;;;;;;4973899;28;20184;-71
2022/05/05 09:05:42;;;;;;;28.90;26.30;;;17.00;99.90;;;;;;4974159;28;20272;-71
2022/05/05 09:08:24;;;;;;;30.20;27.37;;;16.80;99.90;;;;;;4971940;28;20205;-71
2022/05/05 09:10:51;;;;;;;60.87;56.87;;;16.70;99.90;;;;;;4973683;28;20208;-72
2022/05/05 09:13:37;;;;;;;26.40;24.00;;;16.60;99.90;;;;;;4973658;28;20177;-71
2022/05/05 09:16:05;;;;;;;27.43;25.17;;;16.60;99.90;;;;;;5008172;23;20256;-73
2022/05/05 09:18:33;;;;;;;21.90;19.83;;;16.60;99.90;;;;;;4991427;28;20184;-74
2022/05/05 09:21:03;;;;;;;19.90;17.93;;;16.60;99.90;;;;;;4993077;28;20202;-73
2022/05/05 09:26:35;;;;;;;21.93;20.03;;;16.80;99.90;;;;;;4973587;28;20243;-73
2022/05/05 09:29:18;;;;;;;19.97;18.03;;;17.10;99.90;;;;;;4973043;28;20305;-73
2022/05/05 09:31:44;;;;;;;24.37;22.47;;;17.50;99.90;;;;;;4972320;28;20624;-73
2022/05/05 09:34:20;;;;;;;24.43;22.33;;;17.80;99.90;;;;;;4973365;28;20209;-73
2022/05/05 09:36:47;;;;;;;23.33;21.23;;;18.10;99.90;;;;;;4971778;28;20180;-73
2022/05/05 09:39:13;;;;;;;18.60;16.90;;;18.10;99.90;;;;;;4973180;28;20620;-74
2022/05/05 09:41:46;;;;;;;22.40;17.47;;;18.20;99.90;;;;;;4972040;28;20181;-73
2022/05/05 09:44:13;;;;;;;36.20;32.97;;;18.40;99.90;;;;;;4972062;28;20649;-73
2022/05/05 09:46:40;;;;;;;31.70;28.87;;;18.50;99.90;;;;;;4973252;28;20621;-73
2022/05/05 09:49:18;;;;;;;28.33;25.40;;;18.30;99.90;;;;;;4971726;28;20299;-72
2022/05/05 09:57:41;;;;;;;28.83;26.23;;;17.70;99.90;;;;;;4973128;28;20187;-73
2022/05/05 10:00:23;;;;;;;29.00;26.57;;;17.70;99.90;;;;;;4973310;28;20212;-74
2022/05/05 10:05:42;;;;;;;23.07;20.80;;;17.60;99.90;;;;;;4973019;28;20259;-74
2022/05/05 10:08:09;;;;;;;23.43;21.23;;;17.80;99.90;;;;;;4985098;28;20201;-74
2022/05/05 10:10:37;;;;;;;23.50;20.97;;;17.70;99.90;;;;;;4993556;28;20256;-74
2022/05/05 10:13:05;;;;;;;26.37;24.17;;;17.90;99.90;;;;;;4974589;28;20187;-74
2022/05/05 10:15:33;;;;;;;26.77;24.47;;;17.90;99.90;;;;;;4972979;28;20213;-74
2022/05/05 10:18:02;;;;;;;24.17;21.87;;;17.90;99.90;;;;;;4972657;28;20191;-74
2022/05/05 10:20:30;;;;;;;26.03;23.63;;;17.90;99.90;;;;;;4971840;28;20236;-73
2022/05/05 10:23:11;;;;;;;21.90;19.83;;;17.90;99.90;;;;;;4972717;28;20247;-74
2022/05/05 10:25:39;;;;;;;22.20;19.83;;;18.40;99.90;;;;;;4972597;28;20215;-73
2022/05/05 10:28:44;;;;;;;21.90;19.67;;;18.70;99.90;;;;;;4972349;28;20711;-73
2022/05/05 10:31:37;;;;;;;25.70;23.37;;;19.20;99.90;;;;;;4972638;28;20211;-73
2022/05/05 10:34:06;;;;;;;69.70;65.30;;;20.00;99.90;;;;;;4971510;28;20188;-73
2022/05/05 10:36:34;;;;;;;26.93;24.73;;;20.10;99.90;;;;;;4971870;28;20176;-73
2022/05/05 10:39:19;;;;;;;32.80;30.27;;;20.50;99.90;;;;;;4972330;28;20545;-73
2022/05/05 10:41:46;;;;;;;30.03;27.63;;;20.40;99.90;;;;;;4972436;28;20188;-73
2022/05/05 10:44:23;;;;;;;37.03;34.20;;;20.00;99.90;;;;;;4972499;28;20268;-73
2022/05/05 10:46:55;;;;;;;31.03;28.27;;;19.90;99.90;;;;;;4972109;28;20184;-73
2022/05/05 10:49:33;;;;;;;27.90;25.37;;;19.70;99.90;;;;;;4970915;28;20180;-73
2022/05/05 10:52:10;;;;;;;26.93;24.73;;;19.30;99.90;;;;;;4972650;28;20185;-73
2022/05/05 10:54:44;;;;;;;23.67;21.37;;;19.30;99.90;;;;;;4971511;28;20752;-74
2022/05/05 10:57:26;;;;;;;28.20;25.30;;;19.30;99.90;;;;;;4971021;28;20189;-74
2022/05/05 11:00:12;;;;;;;42.80;39.20;;;18.90;99.90;;;;;;4972118;28;20660;-74
2022/05/05 11:02:57;;;;;;;52.80;49.17;;;18.60;99.90;;;;;;4974049;28;20189;-74
2022/05/05 11:05:27;;;;;;;52.23;48.33;;;18.50;99.90;;;;;;4976837;28;20245;-74
2022/05/05 11:08:06;;;;;;;37.43;34.33;;;18.50;99.90;;;;;;4975746;28;20231;-73
2022/05/05 11:10:41;;;;;;;54.90;50.93;;;18.60;99.90;;;;;;4975988;28;20284;-74
2022/05/05 11:13:25;;;;;;;49.77;46.03;;;18.80;99.90;;;;;;4976093;28;20235;-74
2022/05/05 11:21:54;;;;;;;43.43;40.17;;;19.20;99.90;;;;;;4954662;29;20233;-73
2022/05/05 11:24:29;;;;;;;31.67;28.63;;;19.10;99.90;;;;;;4969056;28;20220;-73
2022/05/05 11:26:55;;;;;;;37.93;34.87;;;18.80;99.90;;;;;;4974139;28;20192;-73
2022/05/05 11:29:21;;;;;;;63.77;59.53;;;18.80;99.90;;;;;;4975561;28;20172;-73
2022/05/05 11:31:57;;;;;;;28.80;26.33;;;18.70;99.90;;;;;;4975537;28;20321;-73
2022/05/05 11:34:31;;;;;;;24.67;22.30;;;18.70;99.90;;;;;;4975715;28;20227;-73
2022/05/05 11:36:59;;;;;;;32.00;29.50;;;18.60;99.90;;;;;;4974255;28;20185;-73
2022/05/05 11:39:25;;;;;;;32.17;29.67;;;18.30;99.90;;;;;;4974276;28;20213;-72
2022/05/05 11:41:58;;;;;;;49.87;46.37;;;18.10;99.90;;;;;;4975682;28;20642;-73
2022/05/05 11:44:25;;;;;;;33.03;30.07;;;18.00;99.90;;;;;;4975540;28;20205;-73
2022/05/05 11:46:53;;;;;;;51.73;48.10;;;18.00;99.90;;;;;;4975365;28;20177;-73
2022/05/05 11:49:19;;;;;;;45.03;41.63;;;18.10;99.90;;;;;;4974810;28;20184;-73
2022/05/05 11:51:45;;;;;;;44.63;41.13;;;18.20;99.90;;;;;;4987109;28;20184;-73
2022/05/05 11:54:16;;;;;;;47.87;44.47;;;18.30;99.90;;;;;;4988275;28;20240;-73
2022/05/05 11:56:47;;;;;;;46.33;42.63;;;18.20;99.90;;;;;;4976156;28;20196;-73
2022/05/05 12:02:12;;;;;;;42.07;38.70;;;18.50;99.90;;;;;;4975216;28;20185;-73
2022/05/05 12:04:55;;;;;;;40.33;37.13;;;18.50;99.90;;;;;;4975032;28;20925;-73
2022/05/05 12:07:24;;;;;;;51.33;47.63;;;18.70;99.90;;;;;;4974660;28;20213;-74
2022/05/05 12:09:52;;;;;;;38.63;35.63;;;18.90;99.90;;;;;;4975151;28;20733;-73
2022/05/05 12:12:21;;;;;;;31.07;28.40;;;19.10;99.90;;;;;;4974198;28;20185;-73
2022/05/05 12:15:07;;;;;;;29.03;26.33;;;19.40;99.90;;;;;;4974033;28;20267;-73
2022/05/05 12:17:45;;;;;;;32.30;29.57;;;19.60;99.90;;;;;;4974567;28;20224;-73
2022/05/05 12:20:18;;;;;;;31.90;28.83;;;19.80;99.90;;;;;;4973852;28;20192;-72
2022/05/05 12:22:52;;;;;;;28.60;26.07;;;20.10;99.90;;;;;;4974877;28;20695;-72
2022/05/05 12:25:18;;;;;;;23.17;20.97;;;20.60;99.90;;;;;;4973725;28;20208;-74
2022/05/05 12:27:59;;;;;;;30.67;28.10;;;20.80;99.90;;;;;;4973077;28;20215;-74
2022/05/05 12:30:39;;;;;;;35.83;33.03;;;21.00;99.90;;;;;;4974716;28;20180;-74
2022/05/05 12:33:11;;;;;;;36.83;33.80;;;20.70;99.90;;;;;;4973413;28;20764;-74
2022/05/05 12:35:42;;;;;;;32.93;30.33;;;20.50;99.90;;;;;;4973605;28;20573;-74
2022/05/05 12:38:11;;;;;;;35.57;32.73;;;20.20;99.90;;;;;;4974194;28;20188;-74
2022/05/05 12:40:37;;;;;;;35.80;32.77;;;19.80;99.90;;;;;;4973769;28;20280;-74
2022/05/05 12:43:08;;;;;;;26.27;23.87;;;19.20;99.90;;;;;;4973212;28;20181;-74
2022/05/05 12:45:35;;;;;;;38.77;35.67;;;18.70;99.90;;;;;;4973287;28;20417;-74
2022/05/05 12:48:04;;;;;;;42.43;39.10;;;18.60;99.90;;;;;;4972841;28;20287;-74
2022/05/05 12:50:35;;;;;;;47.90;44.40;;;18.70;99.90;;;;;;4973121;28;20560;-74
2022/05/05 13:01:21;;;;;;;43.97;39.40;;;20.70;99.90;;;;;;4974028;28;20194;-74
2022/05/05 13:03:48;;;;;;;37.63;34.30;;;20.70;99.90;;;;;;4972728;28;20192;-74
2022/05/05 13:06:14;;;;;;;32.33;29.03;;;21.00;99.90;;;;;;4973888;28;20233;-74
2022/05/05 13:08:40;;;;;;;28.40;25.65;;;21.60;99.90;;;;;;4973376;28;20251;-73
2022/05/05 13:11:06;;;;;;;21.60;19.50;;;22.00;99.90;;;;;;4972606;28;20232;-73
2022/05/05 13:13:31;;;;;;;25.10;22.70;;;22.30;99.90;;;;;;4974064;28;20174;-74
2022/05/05 13:15:57;;;;;;;26.17;23.83;;;22.40;99.90;;;;;;4973536;28;20296;-74
2022/05/05 13:18:23;;;;;;;28.30;25.58;;;22.40;99.90;;;;;;4973223;28;20181;-73
2022/05/05 13:20:49;;;;;;;32.88;29.88;;;22.40;99.90;;;;;;4972525;28;20224;-73
2022/05/05 13:23:15;;;;;;;30.00;27.10;;;21.90;99.90;;;;;;4972259;28;20177;-73
2022/05/05 13:25:40;;;;;;;29.30;26.42;;;21.50;99.90;;;;;;4973386;28;20657;-73
2022/05/05 13:28:07;;;;;;;27.00;24.25;;;20.90;99.90;;;;;;4972105;28;20593;-73
2022/05/05 13:30:33;;;;;;;31.13;28.23;;;20.70;99.90;;;;;;4972588;28;20454;-73
2022/05/05 13:33:00;;;;;;;46.67;42.23;;;20.20;99.90;;;;;;4974869;28;20209;-73
2022/05/05 13:35:26;;;;;;;44.60;40.43;;;20.00;99.90;;;;;;4981966;28;20244;-73
2022/05/05 13:37:53;;;;;;;43.27;39.30;;;19.80;99.90;;;;;;4983800;28;20215;-73
2022/05/05 13:40:18;;;;;;;38.93;35.37;;;19.80;99.90;;;;;;4983219;28;20204;-73
2022/05/05 13:42:44;;;;;;;35.67;32.40;;;19.90;99.90;;;;;;4977739;28;20649;-73
2022/05/05 13:45:10;;;;;;;37.03;33.50;;;19.70;99.90;;;;;;4973734;28;20209;-73
2022/05/05 13:47:36;;;;;;;35.40;32.37;;;19.60;99.90;;;;;;4973530;28;20223;-73
2022/05/05 13:50:02;;;;;;;37.00;33.60;;;19.80;99.90;;;;;;4973581;28;20252;-74
2022/05/05 13:52:28;;;;;;;41.67;38.03;;;20.70;99.90;;;;;;4971829;28;20185;-73
2022/05/05 13:54:54;;;;;;;48.93;43.93;;;20.60;99.90;;;;;;4973057;28;20200;-74
2022/05/05 13:57:20;;;;;;;43.87;40.07;;;20.90;99.90;;;;;;4972820;28;20219;-74
2022/05/05 13:59:45;;;;;;;34.72;31.33;;;21.50;99.90;;;;;;4971885;28;20189;-74
2022/05/05 14:02:11;;;;;;;36.50;32.35;;;22.30;99.90;;;;;;4973176;28;20219;-74
2022/05/05 14:04:37;;;;;;;31.88;28.48;;;22.10;99.90;;;;;;4973234;28;20749;-72
2022/05/05 14:07:03;;;;;;;34.00;29.67;;;22.50;99.90;;;;;;4972512;28;20265;-73
2022/05/05 14:12:15;;;;;;;31.15;24.75;;;23.90;99.90;;;;;;4973044;28;20213;-73
2022/05/05 14:14:43;;;;;;;26.20;23.42;;;24.80;99.90;;;;;;4972739;28;20219;-73
2022/05/05 14:17:10;;;;;;;24.23;21.63;;;25.10;99.90;;;;;;4971304;28;20696;-73
2022/05/05 14:19:36;;;;;;;25.42;21.67;;;25.10;99.90;;;;;;4973257;28;20192;-73
2022/05/05 14:22:02;;;;;;;24.75;22.35;;;25.10;99.90;;;;;;4972615;28;20196;-74
2022/05/05 14:24:28;;;;;;;25.48;22.95;;;25.10;99.90;;;;;;4972758;28;20201;-73
2022/05/05 14:26:55;;;;;;;27.40;24.67;;;24.50;99.90;;;;;;4972381;28;20177;-73
2022/05/05 14:29:21;;;;;;;24.25;21.85;;;23.10;99.90;;;;;;4971383;28;20239;-73
2022/05/05 14:31:49;;;;;;;26.30;22.10;;;22.40;99.90;;;;;;4972819;28;20181;-73
2022/05/05 14:34:15;;;;;;;23.05;20.75;;;22.30;99.90;;;;;;4972322;28;20251;-73
2022/05/05 14:36:47;;;;;;;23.40;21.17;;;21.80;99.90;;;;;;4970524;28;20609;-73
2022/05/05 14:39:13;;;;;;;23.52;21.02;;;22.10;99.90;;;;;;4972692;28;20199;-73
2022/05/05 14:41:39;;;;;;;27.48;24.55;;;22.00;99.90;;;;;;4972355;28;20184;-73
2022/05/05 14:44:05;;;;;;;28.17;25.38;;;21.40;99.90;;;;;;4972359;28;20217;-73
2022/05/05 14:46:31;;;;;;;28.60;25.63;;;21.30;99.90;;;;;;4972503;28;20213;-73
2022/05/05 14:48:58;;;;;;;28.05;25.38;;;22.00;99.90;;;;;;4972399;28;20571;-73
2022/05/05 14:51:24;;;;;;;25.50;23.00;;;22.80;99.90;;;;;;4972421;28;20586;-73
2022/05/05 14:53:50;;;;;;;28.73;25.60;;;22.40;99.90;;;;;;4972360;28;20187;-72
2022/05/05 14:56:16;;;;;;;28.02;25.23;;;22.20;99.90;;;;;;4972267;28;20204;-73
2022/05/05 14:58:42;;;;;;;27.90;25.27;;;22.70;99.90;;;;;;4972026;28;20235;-73
2022/05/05 15:01:09;;;;;;;23.80;21.33;;;23.30;99.90;;;;;;4972417;28;20181;-73
2022/05/05 15:03:37;;;;;;;26.77;21.88;;;23.60;99.90;;;;;;4972305;28;20200;-73
2022/05/05 15:06:03;;;;;;;22.45;20.15;;;23.20;99.90;;;;;;4972526;28;20204;-73
2022/05/05 15:08:29;;;;;;;25.38;22.38;;;23.10;99.90;;;;;;4972688;28;20688;-73
2022/05/05 15:10:55;;;;;;;26.77;24.00;;;22.70;99.90;;;;;;4972617;28;20577;-73
2022/05/05 15:13:22;;;;;;;29.70;26.60;;;22.00;99.90;;;;;;4972204;28;20177;-73
2022/05/05 15:15:48;;;;;;;32.33;26.73;;;21.90;99.90;;;;;;4992938;23;20300;-71
2022/05/05 15:18:14;;;;;;;29.75;26.52;;;22.20;99.90;;;;;;4974706;28;20196;-73
2022/05/05 15:20:40;;;;;;;32.92;29.42;;;22.70;99.90;;;;;;4973705;28;20276;-72
2022/05/05 15:23:06;;;;;;;29.13;24.17;;;22.90;99.90;;;;;;4971527;28;20177;-72
2022/05/05 15:25:32;;;;;;;24.48;20.98;;;22.60;99.90;;;;;;4972526;28;20263;-71
2022/05/05 15:27:58;;;;;;;28.23;25.50;;;22.00;99.90;;;;;;4972103;28;20232;-72
2022/05/05 15:30:24;;;;;;;29.67;25.93;;;21.70;99.90;;;;;;4971989;28;20272;-72
2022/05/05 15:32:49;;;;;;;26.77;23.95;;;22.00;99.90;;;;;;4972239;28;20284;-74
2022/05/05 15:35:15;;;;;;;25.15;22.45;;;22.20;99.90;;;;;;4971856;28;20260;-74
2022/05/05 15:37:41;;;;;;;28.48;24.75;;;22.40;99.90;;;;;;4971727;28;20185;-73
2022/05/05 15:40:09;;;;;;;28.45;25.45;;;22.50;99.90;;;;;;4972049;28;20583;-73
2022/05/05 15:42:36;;;;;;;27.15;24.23;;;22.70;99.90;;;;;;4972058;28;20189;-73
2022/05/05 15:45:02;;;;;;;29.40;24.73;;;22.80;99.90;;;;;;4971752;28;20197;-73
2022/05/05 15:47:29;;;;;;;30.80;27.58;;;23.00;99.90;;;;;;4972863;28;20215;-73
2022/05/05 15:49:55;;;;;;;30.70;27.40;;;22.80;99.90;;;;;;4977521;28;20554;-73
2022/05/05 15:52:21;;;;;;;33.93;29.13;;;22.20;99.90;;;;;;4975181;28;20605;-73
2022/05/05 15:54:48;;;;;;;31.93;26.10;;;21.10;99.90;;;;;;4974045;28;20201;-73
2022/05/05 15:57:15;;;;;;;32.67;29.30;;;20.40;99.90;;;;;;4973623;28;20672;-74
2022/05/05 15:59:42;;;;;;;36.77;32.93;;;20.70;99.90;;;;;;4973895;28;20192;-73
2022/05/05 16:02:13;;;;;;;34.00;30.43;;;21.00;99.90;;;;;;4973998;28;20559;-73
2022/05/05 16:04:41;;;;;;;35.90;31.07;;;21.20;99.90;;;;;;4974870;28;20715;-73
2022/05/05 16:07:06;;;;;;;41.40;36.88;;;21.30;99.90;;;;;;4971609;28;20181;-73
2022/05/05 16:09:32;;;;;;;47.73;39.60;;;21.20;99.90;;;;;;4973680;28;20177;-73
2022/05/05 16:11:59;;;;;;;37.53;33.53;;;20.80;99.90;;;;;;4974605;28;20177;-73
2022/05/05 16:14:28;;;;;;;35.93;31.87;;;20.30;99.90;;;;;;4974273;28;20263;-73
2022/05/05 16:16:55;;;;;;;36.83;30.33;;;19.90;99.90;;;;;;4972564;28;20272;-73
2022/05/05 16:19:21;;;;;;;40.10;35.93;;;19.70;99.90;;;;;;4973142;28;20192;-71